Sterling, Massachusetts
Current Conditions -  °F | °C
As of 5:52 PM on Wednesday 17 Dec 2014 (Local Time) from KFIT Reporting Station
Broken Clouds Broken Clouds  
Wind Chill: 39°   Ceiling: 9500
Heat Index: 44°   Visibility: 10mi
Dew Point: 37°   Wind: 10mph
Humidity: 76%   Direction: 300°WNW
Pressure: 29.74"   Gusts: 18mph
Location:  42.44°N, 71.76°W
Report Text: KFIT 172252Z AUTO 30009G16KT 10SM BKN095 07/03 A2974 RMK AO2 SLP072 T00670028
Loading
Personal Weather Stations






























Interactive Weather Map New forecast layout! Learn more

10-Day Weather Forecast

Advertisements
Track Severe Weather on mobile